createdAt,value
2018-10-11T00:02:05.763Z,96640.51
2018-10-11T00:04:34.059Z,96649.30
2018-10-11T00:07:02.782Z,96663.11
2018-10-11T00:09:31.040Z,96663.19
2018-10-11T00:11:59.336Z,96664.80
2018-10-11T00:14:27.630Z,96663.91
2018-10-11T00:16:55.902Z,96661.21
2018-10-11T00:19:24.187Z,96659.22
2018-10-11T00:21:52.471Z,96661.05
2018-10-11T00:24:20.759Z,96655.27
2018-10-11T00:26:49.030Z,96657.84
2018-10-11T00:29:17.315Z,96651.11
2018-10-11T00:31:45.583Z,96646.27
2018-10-11T00:34:13.874Z,96640.14
2018-10-11T00:36:42.247Z,96632.39
2018-10-11T00:39:10.537Z,96625.55
2018-10-11T00:41:38.812Z,96617.05
2018-10-11T00:44:07.239Z,96621.90
2018-10-11T00:46:35.518Z,96637.45
2018-10-11T00:49:03.879Z,96653.66
2018-10-11T00:51:32.146Z,96653.66
2018-10-11T00:54:00.433Z,96656.17
2018-10-11T00:56:28.894Z,96654.17
2018-10-11T00:58:57.186Z,96653.12
2018-10-11T01:01:25.800Z,96654.87
2018-10-11T01:03:54.109Z,96665.89
2018-10-11T01:06:22.371Z,96661.02
2018-10-11T01:08:50.655Z,96652.83
2018-10-11T01:11:18.936Z,96649.14
2018-10-11T01:13:47.226Z,96658.87
2018-10-11T01:16:15.498Z,96648.78
2018-10-11T01:18:43.870Z,96644.02
2018-10-11T01:21:12.134Z,96651.86
2018-10-11T01:23:40.467Z,96654.28
2018-10-11T01:26:08.727Z,96657.79
2018-10-11T01:28:37.030Z,96653.22
2018-10-11T01:31:10.416Z,96656.17
2018-10-11T01:33:38.687Z,96649.21
2018-10-11T01:36:06.979Z,96637.38
2018-10-11T01:38:35.326Z,96634.67
2018-10-11T01:41:03.641Z,96636.03
2018-10-11T01:43:32.051Z,96639.25
2018-10-11T01:46:00.357Z,96636.56
2018-10-11T01:48:28.626Z,96626.63
2018-10-11T01:50:56.936Z,96605.39
2018-10-11T01:53:25.238Z,96609.42
2018-10-11T01:55:53.519Z,96606.47
2018-10-11T01:58:22.075Z,96600.30
2018-10-11T02:00:50.375Z,96596.27
2018-10-11T02:03:18.679Z,96590.36
2018-10-11T02:05:46.986Z,96591.97
2018-10-11T02:08:15.256Z,96585.78
2018-10-11T02:10:43.554Z,96585.78
2018-10-11T02:13:11.836Z,96573.83
2018-10-11T02:15:40.120Z,96572.23
2018-10-11T02:18:08.387Z,96572.98
2018-10-11T02:20:36.678Z,96571.41
2018-10-11T02:23:04.939Z,96573.95
2018-10-11T02:25:33.271Z,96576.98
2018-10-11T02:28:01.536Z,96575.25
2018-10-11T02:30:29.829Z,96570.02
2018-10-11T02:32:58.110Z,96574.05
2018-10-11T02:35:26.398Z,96569.47
2018-10-11T02:37:54.663Z,96565.09
2018-10-11T02:40:22.936Z,96560.12
2018-10-11T02:42:51.224Z,96557.84
2018-10-11T02:45:19.500Z,96553.50
2018-10-11T02:47:47.798Z,96559.66
2018-10-11T02:50:16.072Z,96564.09
2018-10-11T02:52:44.343Z,96564.63
2018-10-11T02:55:20.684Z,96561.39
2018-10-11T02:58:00.447Z,96558.89
2018-10-11T03:00:29.452Z,96550.40
2018-10-11T03:02:57.932Z,96544.67
2018-10-11T03:05:26.243Z,96543.52
2018-10-11T03:07:54.583Z,96552.14
2018-10-11T03:10:23.272Z,96550.80
2018-10-11T03:12:51.559Z,96545.61
2018-10-11T03:15:19.843Z,96556.95
2018-10-11T03:17:48.135Z,96547.77
2018-10-11T03:20:16.431Z,96545.76
2018-10-11T03:22:44.738Z,96533.68
2018-10-11T03:25:13.035Z,96539.39
2018-10-11T03:27:41.348Z,96542.84
2018-10-11T03:30:09.646Z,96542.83
2018-10-11T03:32:37.922Z,96543.67
2018-10-11T03:35:06.187Z,96543.72
2018-10-11T03:37:34.462Z,96540.73
2018-10-11T03:40:02.758Z,96540.20
2018-10-11T03:42:40.306Z,96542.39
2018-10-11T03:45:08.611Z,96537.30
2018-10-11T03:47:36.895Z,96543.98
2018-10-11T03:50:05.197Z,96538.19
2018-10-11T03:52:33.627Z,96537.30
2018-10-11T03:55:01.901Z,96537.23
2018-10-11T03:57:30.190Z,96532.40
2018-10-11T03:59:58.462Z,96532.33
2018-10-11T04:02:26.878Z,96536.77
2018-10-11T04:04:56.147Z,96542.91
2018-10-11T04:07:24.763Z,96541.55
2018-10-11T04:09:53.058Z,96545.74
2018-10-11T04:12:21.350Z,96560.11
2018-10-11T04:14:50.079Z,96554.25
2018-10-11T04:17:18.371Z,96557.18
2018-10-11T04:19:46.634Z,96565.06
2018-10-11T04:22:14.932Z,96564.73
2018-10-11T04:24:43.222Z,96568.79
2018-10-11T04:27:11.485Z,96560.53
2018-10-11T04:29:39.783Z,96564.80
2018-10-11T04:32:08.469Z,96566.40
2018-10-11T04:34:36.780Z,96562.14
2018-10-11T04:37:05.044Z,96572.16
2018-10-11T04:39:33.342Z,96571.23
2018-10-11T04:42:01.624Z,96571.37
2018-10-11T04:44:34.515Z,96570.98
2018-10-11T04:47:03.359Z,96568.90
2018-10-11T04:49:31.920Z,96571.42
2018-10-11T04:52:00.199Z,96575.16
2018-10-11T04:54:28.508Z,96574.61
2018-10-11T04:56:56.823Z,96575.19
2018-10-11T04:59:25.175Z,96575.19
2018-10-11T05:01:53.483Z,96573.91
2018-10-11T05:04:21.778Z,96576.88
2018-10-11T05:06:50.063Z,96577.36
2018-10-11T05:09:18.387Z,96577.19
2018-10-11T05:11:46.710Z,96571.75
2018-10-11T05:14:15.581Z,96584.06
2018-10-11T05:16:43.899Z,96590.36
2018-10-11T05:19:12.256Z,96594.45
2018-10-11T05:21:41.082Z,96601.64
2018-10-11T05:24:09.390Z,96603.62
2018-10-11T05:26:37.715Z,96613.50
2018-10-11T05:29:06.035Z,96624.43
2018-10-11T05:31:34.354Z,96637.00
2018-10-11T05:34:02.647Z,96655.69
2018-10-11T05:36:30.930Z,96659.79
2018-10-11T05:38:59.247Z,96657.64
2018-10-11T05:41:27.575Z,96642.95
2018-10-11T05:43:56.015Z,96644.06
2018-10-11T05:46:33.438Z,96648.37
2018-10-11T05:49:03.716Z,96651.35
2018-10-11T05:51:32.383Z,96647.03
2018-10-11T05:54:01.131Z,96642.20
2018-10-11T05:56:30.740Z,96636.02
2018-10-11T05:58:59.511Z,96640.88
2018-10-11T06:01:27.903Z,96639.00
2018-10-11T06:03:57.056Z,96639.78
2018-10-11T06:06:25.376Z,96643.80
2018-10-11T06:08:53.788Z,96637.90
2018-10-11T06:11:22.141Z,96636.30
2018-10-11T06:13:51.211Z,96640.59
2018-10-11T06:16:19.544Z,96641.69
2018-10-11T06:18:47.874Z,96644.08
2018-10-11T06:21:16.235Z,96639.78
2018-10-11T06:23:44.536Z,96643.28
2018-10-11T06:26:13.331Z,96663.95
2018-10-11T06:28:41.715Z,96687.34
2018-10-11T06:31:10.064Z,96688.41
2018-10-11T06:33:38.383Z,96690.86
2018-10-11T06:36:06.818Z,96688.17
2018-10-11T06:38:35.139Z,96681.45
2018-10-11T06:41:03.487Z,96684.14
2018-10-11T06:43:31.823Z,96691.91
2018-10-11T06:46:00.184Z,96699.14
2018-10-11T06:48:28.727Z,96692.91
2018-10-11T06:50:57.094Z,96693.33
2018-10-11T06:53:25.762Z,96688.33
2018-10-11T06:55:54.079Z,96689.14
2018-10-11T06:58:22.363Z,96683.48
2018-10-11T07:00:50.678Z,96684.80
2018-10-11T07:03:18.971Z,96694.02
2018-10-11T07:05:47.270Z,96698.17
2018-10-11T07:08:15.632Z,96704.45
2018-10-11T07:10:43.911Z,96707.92
2018-10-11T07:13:12.232Z,96710.77
2018-10-11T07:15:40.548Z,96704.05
2018-10-11T07:18:09.094Z,96703.09
2018-10-11T07:20:37.399Z,96701.27
2018-10-11T07:23:05.723Z,96699.20
2018-10-11T07:25:34.019Z,96708.23
2018-10-11T07:28:02.328Z,96715.56
2018-10-11T07:30:30.613Z,96717.42
2018-10-11T07:32:58.932Z,96722.20
2018-10-11T07:35:27.359Z,96723.35
2018-10-11T07:37:55.628Z,96722.70
2018-10-11T07:40:23.934Z,96716.70
2018-10-11T07:42:52.244Z,96720.09
2018-10-11T07:45:20.532Z,96720.52
2018-10-11T07:47:48.832Z,96726.76
2018-10-11T07:50:17.135Z,96735.11
2018-10-11T07:52:45.434Z,96730.20
2018-10-11T07:55:13.975Z,96738.06
2018-10-11T07:57:42.415Z,96744.47
2018-10-11T08:00:12.464Z,96737.02
2018-10-11T08:02:41.731Z,96730.55
2018-10-11T08:05:10.276Z,96731.17
2018-10-11T08:07:38.712Z,96731.59
2018-10-11T08:10:07.231Z,96732.58
2018-10-11T08:12:35.536Z,96743.41
2018-10-11T08:15:03.891Z,96739.70
2018-10-11T08:17:32.905Z,96741.23
2018-10-11T08:20:00.900Z,96740.81
2018-10-11T08:22:29.266Z,96732.80
2018-10-11T08:24:57.649Z,96735.94
2018-10-11T08:27:25.973Z,96740.00
2018-10-11T08:29:54.291Z,96729.57
2018-10-11T08:32:22.650Z,96727.00
2018-10-11T08:34:50.894Z,96729.22
2018-10-11T08:37:19.334Z,96726.53
2018-10-11T08:39:47.670Z,96721.33
2018-10-11T08:42:16.032Z,96733.31
2018-10-11T08:44:44.351Z,96720.52
2018-10-11T08:47:13.702Z,96720.91
2018-10-11T08:49:42.064Z,96721.05
2018-10-11T08:52:10.378Z,96722.63
2018-10-11T08:54:47.132Z,96723.61
2018-10-11T08:57:16.183Z,96732.41
2018-10-11T08:59:44.666Z,96723.59
2018-10-11T09:02:12.970Z,96727.95
2018-10-11T09:04:41.280Z,96735.07
2018-10-11T09:07:09.568Z,96744.66
2018-10-11T09:09:37.916Z,96740.19
2018-10-11T09:12:06.243Z,96750.25
2018-10-11T09:14:34.585Z,96761.70
2018-10-11T09:17:02.867Z,96760.22
2018-10-11T09:19:31.175Z,96768.30
2018-10-11T09:21:59.872Z,96748.95
2018-10-11T09:24:28.187Z,96746.56
2018-10-11T09:26:56.581Z,96742.56
2018-10-11T09:29:24.878Z,96744.61
2018-10-11T09:31:53.170Z,96740.47
2018-10-11T09:34:21.495Z,96729.59
2018-10-11T09:36:49.770Z,96728.03
2018-10-11T09:39:18.038Z,96728.22
2018-10-11T09:41:46.360Z,96724.08
2018-10-11T09:44:14.647Z,96725.06
2018-10-11T09:46:42.963Z,96725.52
2018-10-11T09:49:11.247Z,96718.41
2018-10-11T09:51:39.550Z,96724.46
2018-10-11T09:54:07.847Z,96720.67
2018-10-11T09:56:46.035Z,96729.04
2018-10-11T09:59:14.308Z,96725.11
2018-10-11T10:01:45.970Z,96724.50
2018-10-11T10:04:14.476Z,96709.95
2018-10-11T10:06:42.779Z,96709.16
2018-10-11T10:09:11.067Z,96707.38
2018-10-11T10:11:39.366Z,96708.30
2018-10-11T10:14:07.651Z,96705.70
2018-10-11T10:16:35.944Z,96709.22
2018-10-11T10:19:04.255Z,96707.36
2018-10-11T10:21:32.599Z,96706.13
2018-10-11T10:24:00.875Z,96709.46
2018-10-11T10:26:29.216Z,96711.92
2018-10-11T10:28:57.450Z,96727.46
2018-10-11T10:31:25.755Z,96719.28
2018-10-11T10:33:54.046Z,96714.52
2018-10-11T10:36:22.371Z,96716.56
2018-10-11T10:38:50.652Z,96722.77
2018-10-11T10:41:18.959Z,96725.84
2018-10-11T10:43:47.244Z,96725.02
2018-10-11T10:46:15.556Z,96724.22
2018-10-11T10:48:43.892Z,96727.01
2018-10-11T10:51:12.184Z,96729.25
2018-10-11T10:53:40.479Z,96730.43
2018-10-11T10:56:09.714Z,96736.80
2018-10-11T10:58:38.014Z,96735.70
2018-10-11T11:01:06.343Z,96728.64
2018-10-11T11:03:34.694Z,96726.63
2018-10-11T11:06:02.984Z,96724.51
2018-10-11T11:08:41.843Z,96727.56
2018-10-11T11:11:10.124Z,96731.09
2018-10-11T11:13:38.588Z,96730.80
2018-10-11T11:16:13.719Z,96722.50
2018-10-11T11:18:42.055Z,96723.84
2018-10-11T11:21:10.475Z,96722.02
2018-10-11T11:23:38.771Z,96721.70
2018-10-11T11:26:07.043Z,96715.72
2018-10-11T11:28:35.375Z,96713.89
2018-10-11T11:31:03.658Z,96710.28
2018-10-11T11:33:31.970Z,96708.86
2018-10-11T11:36:00.275Z,96714.86
2018-10-11T11:38:28.583Z,96710.54
2018-10-11T11:40:56.875Z,96707.95
2018-10-11T11:43:25.179Z,96698.46
2018-10-11T11:45:53.519Z,96701.84
2018-10-11T11:48:21.779Z,96699.92
2018-10-11T11:50:50.055Z,96699.78
2018-10-11T11:53:18.387Z,96706.09
2018-10-11T11:55:46.638Z,96706.48
2018-10-11T11:58:14.948Z,96706.62
2018-10-11T12:00:43.226Z,96704.54
2018-10-11T12:03:11.531Z,96698.16
2018-10-11T12:05:39.827Z,96704.41
2018-10-11T12:08:08.135Z,96700.55
2018-10-11T12:10:36.444Z,96697.30
2018-10-11T12:13:07.887Z,96691.38
2018-10-11T12:15:36.858Z,96696.59
2018-10-11T12:18:06.282Z,96688.14
2018-10-11T12:20:35.876Z,96684.08
2018-10-11T12:23:05.290Z,96688.97
2018-10-11T12:25:33.878Z,96691.76
2018-10-11T12:28:02.560Z,96691.64
2018-10-11T12:30:31.035Z,96693.54
2018-10-11T12:32:59.452Z,96687.57
2018-10-11T12:35:28.240Z,96685.30
2018-10-11T12:37:56.600Z,96690.73
2018-10-11T12:40:24.889Z,96684.22
2018-10-11T12:42:53.191Z,96689.55
2018-10-11T12:45:21.556Z,96685.42
2018-10-11T12:47:49.838Z,96682.87
2018-10-11T12:50:18.148Z,96683.25
2018-10-11T12:52:46.436Z,96684.19
2018-10-11T12:55:15.199Z,96689.77
2018-10-11T12:57:43.558Z,96686.00
2018-10-11T13:00:13.378Z,96685.63
2018-10-11T13:02:41.672Z,96688.91
2018-10-11T13:05:10.019Z,96690.83
2018-10-11T13:07:38.323Z,96693.17
2018-10-11T13:10:06.643Z,96690.42
2018-10-11T13:12:34.947Z,96687.38
2018-10-11T13:15:03.280Z,96685.31
2018-10-11T13:17:35.282Z,96685.32
2018-10-11T13:19:59.883Z,96685.68
2018-10-11T13:22:28.158Z,96686.46
2018-10-11T13:24:56.458Z,96690.20
2018-10-11T13:27:24.747Z,96686.08
2018-10-11T13:29:53.051Z,96689.95
2018-10-11T13:32:21.311Z,96688.16
2018-10-11T13:34:49.661Z,96679.08
2018-10-11T13:37:17.880Z,96687.94
2018-10-11T13:39:52.022Z,96683.08
2018-10-11T13:42:14.744Z,96693.61
2018-10-11T13:44:43.747Z,96682.52
2018-10-11T13:47:12.044Z,96684.63
2018-10-11T13:49:40.344Z,96689.69
2018-10-11T13:52:13.191Z,96683.34
2018-10-11T13:54:36.976Z,96689.27
2018-10-11T13:57:05.296Z,96695.73
2018-10-11T13:59:33.596Z,96695.58
2018-10-11T14:02:02.187Z,96692.73
2018-10-11T14:04:30.472Z,96697.88
2018-10-11T14:06:58.760Z,96695.40
2018-10-11T14:09:27.194Z,96694.86
2018-10-11T14:11:55.529Z,96696.67
2018-10-11T14:14:23.814Z,96698.86
2018-10-11T14:16:52.112Z,96692.73
2018-10-11T14:19:20.427Z,96700.37
2018-10-11T14:21:48.706Z,96702.30
2018-10-11T14:24:17.078Z,96700.61
2018-10-11T14:26:45.296Z,96706.92
2018-10-11T14:29:13.575Z,96702.66
2018-10-11T14:31:41.877Z,96704.88
2018-10-11T14:34:10.507Z,96698.39
2018-10-11T14:36:39.315Z,96698.48
2018-10-11T14:39:08.512Z,96695.09
2018-10-11T14:41:37.291Z,96699.98
2018-10-11T14:44:05.983Z,96687.13
2018-10-11T14:46:34.356Z,96687.75
2018-10-11T14:49:02.627Z,96685.13
2018-10-11T14:51:31.012Z,96689.75
2018-10-11T14:53:59.632Z,96689.67
2018-10-11T14:56:27.500Z,96693.08
2018-10-11T14:58:55.796Z,96697.24
2018-10-11T15:01:24.228Z,96689.05
2018-10-11T15:03:52.540Z,96688.92
2018-10-11T15:06:20.838Z,96681.44
2018-10-11T15:08:49.143Z,96681.83
2018-10-11T15:11:17.543Z,96680.83
2018-10-11T15:13:46.011Z,96685.64
2018-10-11T15:16:14.309Z,96684.20
2018-10-11T15:18:42.632Z,96689.63
2018-10-11T15:21:10.911Z,96696.69
2018-10-11T15:23:39.610Z,96703.13
2018-10-11T15:26:07.914Z,96699.03
2018-10-11T15:28:36.228Z,96700.28
2018-10-11T15:31:04.555Z,96703.45
2018-10-11T15:33:32.856Z,96704.83
2018-10-11T15:36:01.502Z,96698.70
2018-10-11T15:38:29.843Z,96706.25
2018-10-11T15:40:58.122Z,96706.11
2018-10-11T15:43:26.431Z,96714.88
2018-10-11T15:45:54.711Z,96717.24
2018-10-11T15:48:23.412Z,96715.64
2018-10-11T15:50:51.683Z,96719.18
2018-10-11T15:53:19.984Z,96719.46
2018-10-11T15:55:48.296Z,96723.17
2018-10-11T15:58:16.580Z,96712.03
2018-10-11T16:00:44.876Z,96721.09
2018-10-11T16:03:13.183Z,96716.05
2018-10-11T16:05:41.731Z,96725.03
2018-10-11T16:08:09.759Z,96718.82
2018-10-11T16:10:38.059Z,96711.69
2018-10-11T16:13:06.395Z,96715.39
2018-10-11T16:15:34.675Z,96724.27
2018-10-11T16:18:02.978Z,96722.59
2018-10-11T16:20:31.227Z,96724.83
2018-10-11T16:22:59.495Z,96728.80
2018-10-11T16:25:27.787Z,96733.58
2018-10-11T16:27:56.084Z,96731.83
2018-10-11T16:30:24.374Z,96736.86
2018-10-11T16:32:53.147Z,96724.86
2018-10-11T16:35:21.447Z,96724.08
2018-10-11T16:37:49.698Z,96736.38
2018-10-11T16:40:17.992Z,96735.37
2018-10-11T16:42:46.263Z,96742.36
2018-10-11T16:45:14.571Z,96734.66
2018-10-11T16:47:42.862Z,96732.64
2018-10-11T16:50:11.362Z,96736.41
2018-10-11T16:52:39.569Z,96738.19
2018-10-11T16:55:07.863Z,96742.46
2018-10-11T16:57:36.134Z,96738.61
2018-10-11T17:00:04.477Z,96739.20
2018-10-11T17:02:33.051Z,96745.84
2018-10-11T17:05:01.341Z,96742.77
2018-10-11T17:07:29.612Z,96746.53
2018-10-11T17:09:58.249Z,96748.53
2018-10-11T17:12:26.506Z,96745.86
2018-10-11T17:14:54.795Z,96740.13
2018-10-11T17:17:23.067Z,96741.49
2018-10-11T17:19:51.365Z,96744.71
2018-10-11T17:22:19.643Z,96735.00
2018-10-11T17:24:48.020Z,96735.77
2018-10-11T17:27:16.275Z,96739.63
2018-10-11T17:29:44.651Z,96747.85
2018-10-11T17:32:12.853Z,96756.38
2018-10-11T17:34:41.168Z,96754.69
2018-10-11T17:37:09.467Z,96762.59
2018-10-11T17:39:38.067Z,96766.98
2018-10-11T17:42:06.777Z,96768.09
2018-10-11T17:44:35.027Z,96774.08
2018-10-11T17:47:03.346Z,96778.95
2018-10-11T17:49:31.615Z,96776.06
2018-10-11T17:51:59.926Z,96774.06
2018-10-11T17:54:28.195Z,96776.36
2018-10-11T17:56:56.523Z,96790.05
2018-10-11T17:59:24.784Z,96783.56
2018-10-11T18:01:53.559Z,96785.78
2018-10-11T18:04:22.519Z,96797.39
2018-10-11T18:06:52.571Z,96785.42
2018-10-11T18:09:20.852Z,96783.86
2018-10-11T18:11:49.174Z,96782.45
2018-10-11T18:14:17.468Z,96788.97
2018-10-11T18:16:45.753Z,96780.44
2018-10-11T18:19:14.036Z,96788.43
2018-10-11T18:21:42.490Z,96796.17
2018-10-11T18:24:10.688Z,96799.73
2018-10-11T18:26:45.191Z,96801.09
2018-10-11T18:29:13.521Z,96802.41
2018-10-11T18:31:41.778Z,96801.97
2018-10-11T18:34:10.264Z,96804.12
2018-10-11T18:36:38.555Z,96804.06
2018-10-11T18:39:10.291Z,96803.47
2018-10-11T18:41:38.586Z,96806.81
2018-10-11T18:44:06.887Z,96807.25
2018-10-11T18:46:35.276Z,96804.53
2018-10-11T18:49:03.640Z,96800.79
2018-10-11T18:51:31.960Z,96812.75
2018-10-11T18:54:00.251Z,96806.13
2018-10-11T18:56:29.056Z,96806.14
2018-10-11T18:58:57.347Z,96808.48
2018-10-11T19:01:25.669Z,96813.40
2018-10-11T19:03:53.957Z,96818.97
2018-10-11T19:06:22.288Z,96819.70
2018-10-11T19:08:50.561Z,96816.77
2018-10-11T19:11:18.847Z,96815.95
2018-10-11T19:13:47.176Z,96814.72
2018-10-11T19:16:15.452Z,96811.02
2018-10-11T19:18:43.743Z,96810.69
2018-10-11T19:21:12.497Z,96810.52
2018-10-11T19:23:40.787Z,96807.75
2018-10-11T19:26:09.231Z,96810.77
2018-10-11T19:28:38.272Z,96815.46
2018-10-11T19:31:06.568Z,96818.91
2018-10-11T19:33:34.866Z,96819.78
2018-10-11T19:36:03.143Z,96830.28
2018-10-11T19:38:31.423Z,96832.66
2018-10-11T19:40:59.720Z,96832.11
2018-10-11T19:43:28.020Z,96837.53
2018-10-11T19:45:56.295Z,96845.17
2018-10-11T19:48:24.594Z,96843.04
2018-10-11T19:50:52.871Z,96841.42
2018-10-11T19:53:21.191Z,96843.52
2018-10-11T19:55:49.506Z,96841.86
2018-10-11T19:58:17.806Z,96830.37
2018-10-11T20:00:46.092Z,96827.00
2018-10-11T20:03:14.396Z,96829.16
2018-10-11T20:05:42.671Z,96829.34
2018-10-11T20:08:11.620Z,96830.95
2018-10-11T20:10:39.872Z,96842.08
2018-10-11T20:13:08.143Z,96841.11
2018-10-11T20:15:36.451Z,96848.70
2018-10-11T20:18:12.885Z,96848.67
2018-10-11T20:20:41.187Z,96843.59
2018-10-11T20:23:09.469Z,96843.31
2018-10-11T20:25:37.899Z,96840.02
2018-10-11T20:28:06.359Z,96840.72
2018-10-11T20:30:35.387Z,96845.41
2018-10-11T20:33:03.670Z,96847.25
2018-10-11T20:35:31.967Z,96847.11
2018-10-11T20:38:00.231Z,96851.80
2018-10-11T20:40:35.091Z,96855.11
2018-10-11T20:43:03.383Z,96855.80
2018-10-11T20:45:32.277Z,96854.88
2018-10-11T20:48:00.704Z,96861.34
2018-10-11T20:50:29.016Z,96861.53
2018-10-11T20:52:57.468Z,96863.21
2018-10-11T20:55:25.786Z,96855.95
2018-10-11T20:57:54.060Z,96863.25
2018-10-11T21:00:22.355Z,96866.26
2018-10-11T21:02:50.623Z,96858.92
2018-10-11T21:05:18.952Z,96866.36
2018-10-11T21:07:47.226Z,96864.27
2018-10-11T21:10:15.512Z,96866.97
2018-10-11T21:12:43.775Z,96871.30
2018-10-11T21:15:12.368Z,96875.31
2018-10-11T21:17:40.643Z,96870.41
2018-10-11T21:20:08.999Z,96874.41
2018-10-11T21:22:37.219Z,96875.02
2018-10-11T21:25:05.700Z,96873.77
2018-10-11T21:27:34.006Z,96877.31
2018-10-11T21:30:02.269Z,96880.34
2018-10-11T21:32:30.571Z,96878.31
2018-10-11T21:34:58.810Z,96874.92
2018-10-11T21:37:27.078Z,96878.14
2018-10-11T21:39:55.323Z,96880.69
2018-10-11T21:42:23.627Z,96879.33
2018-10-11T21:44:51.903Z,96872.48
2018-10-11T21:47:20.405Z,96873.83
2018-10-11T21:49:48.686Z,96876.20
2018-10-11T21:52:17.228Z,96869.52
2018-10-11T21:54:45.511Z,96876.14
2018-10-11T21:57:13.806Z,96877.16
2018-10-11T21:59:42.092Z,96875.80
2018-10-11T22:02:10.831Z,96874.93
2018-10-11T22:04:39.539Z,96876.28
2018-10-11T22:07:07.867Z,96880.03
2018-10-11T22:09:36.124Z,96875.56
2018-10-11T22:12:04.447Z,96879.34
2018-10-11T22:14:32.817Z,96880.49
2018-10-11T22:17:01.026Z,96884.47
2018-10-11T22:19:29.287Z,96877.55
2018-10-11T22:21:57.567Z,96883.78
2018-10-11T22:24:25.838Z,96887.02
2018-10-11T22:26:54.143Z,96878.89
2018-10-11T22:29:22.451Z,96882.95
2018-10-11T22:31:50.739Z,96895.55
2018-10-11T22:34:19.013Z,96895.97
2018-10-11T22:36:47.402Z,96901.13
2018-10-11T22:39:15.664Z,96914.02
2018-10-11T22:41:43.950Z,96903.03
2018-10-11T22:44:12.814Z,96914.70
2018-10-11T22:46:41.814Z,96911.31
2018-10-11T22:49:10.499Z,96914.63
2018-10-11T22:51:39.111Z,96911.92
2018-10-11T22:54:07.818Z,96916.27
2018-10-11T22:56:36.399Z,96920.52
2018-10-11T22:59:04.739Z,96931.75
2018-10-11T23:01:33.000Z,96938.16
2018-10-11T23:04:01.283Z,96937.92
2018-10-11T23:06:29.735Z,96947.52
2018-10-11T23:08:58.323Z,96944.16
2018-10-11T23:11:26.576Z,96953.48
2018-10-11T23:13:54.878Z,96953.58
2018-10-11T23:16:23.160Z,96963.16
2018-10-11T23:18:51.451Z,96959.97
2018-10-11T23:21:20.183Z,96974.32
2018-10-11T23:23:48.447Z,96967.69
2018-10-11T23:26:16.720Z,96976.03
2018-10-11T23:28:45.011Z,96979.12
2018-10-11T23:31:13.279Z,96979.52
2018-10-11T23:33:42.424Z,96983.16
2018-10-11T23:36:10.837Z,96989.55
2018-10-11T23:38:39.283Z,96983.13
2018-10-11T23:41:07.807Z,96988.03
2018-10-11T23:43:36.071Z,96983.25
2018-10-11T23:46:04.364Z,96985.27
2018-10-11T23:48:32.627Z,96985.90
2018-10-11T23:51:00.916Z,96980.25
2018-10-11T23:53:29.167Z,96982.81
2018-10-11T23:55:57.455Z,96983.97
2018-10-11T23:58:25.719Z,96991.23
